First Mesa, Arizona
Current Conditions -  °F | °C
As of 11:56 PM on Thursday 18 Dec 2014 (Local Time) from KINW Reporting Station
Clear Clear  
Wind Chill: 24°   Ceiling: Unl
Heat Index: 29°   Visibility: 10mi
Dew Point: 26°   Wind: 5mph
Humidity: 89%   Direction: 240°WSW
Pressure: 30.23"   Gusts: NA
Location:  35.9347°N, 110.453°W
Report Text: KINW 190656Z AUTO 24004KT 10SM CLR M02/M03 A3023 RMK AO2 SLP245 T10171033 400781022
Loading
Personal Weather Stations






























Interactive Weather Map New forecast layout! Learn more

10-Day Weather Forecast

Advertisements
Track Severe Weather on mobile